sensor_id;sensor_type;location;lat;lon;timestamp;temperature;humidity
38784;DHT22;24531;45.502;12.238;2023-07-13T00:00:02;29.20;95.30
38784;DHT22;24531;45.502;12.238;2023-07-13T00:02:33;29.30;95.20
38784;DHT22;24531;45.502;12.238;2023-07-13T00:04:58;29.30;94.90
38784;DHT22;24531;45.502;12.238;2023-07-13T00:07:24;29.30;94.70
38784;DHT22;24531;45.502;12.238;2023-07-13T03:26:32;25.90;96.40
38784;DHT22;24531;45.502;12.238;2023-07-13T03:28:58;26.30;96.70
38784;DHT22;24531;45.502;12.238;2023-07-13T03:31:29;26.40;96.60
38784;DHT22;24531;45.502;12.238;2023-07-13T03:33:56;26.40;96.80
38784;DHT22;24531;45.502;12.238;2023-07-13T03:36:25;26.40;96.80
38784;DHT22;24531;45.502;12.238;2023-07-13T03:38:53;26.40;96.90
38784;DHT22;24531;45.502;12.238;2023-07-13T03:41:20;26.40;96.90
38784;DHT22;24531;45.502;12.238;2023-07-13T03:43:46;26.40;97.00
38784;DHT22;24531;45.502;12.238;2023-07-13T03:46:13;26.40;97.10
38784;DHT22;24531;45.502;12.238;2023-07-13T03:48:40;26.30;97.10
38784;DHT22;24531;45.502;12.238;2023-07-13T03:51:08;26.30;97.20
38784;DHT22;24531;45.502;12.238;2023-07-13T03:53:37;26.30;97.20
38784;DHT22;24531;45.502;12.238;2023-07-13T03:56:03;26.30;97.20
38784;DHT22;24531;45.502;12.238;2023-07-13T03:58:39;26.30;97.30
38784;DHT22;24531;45.502;12.238;2023-07-13T04:01:07;26.20;97.30
38784;DHT22;24531;45.502;12.238;2023-07-13T04:03:33;26.20;97.40
38784;DHT22;24531;45.502;12.238;2023-07-13T04:06:00;26.20;97.40
38784;DHT22;24531;45.502;12.238;2023-07-13T04:08:31;26.10;97.50
38784;DHT22;24531;45.502;12.238;2023-07-13T04:10:58;26.10;97.60
38784;DHT22;24531;45.502;12.238;2023-07-13T04:13:24;26.10;97.60
38784;DHT22;24531;45.502;12.238;2023-07-13T04:15:50;26.00;97.60
38784;DHT22;24531;45.502;12.238;2023-07-13T04:18:16;26.10;97.70
38784;DHT22;24531;45.502;12.238;2023-07-13T04:20:41;26.00;97.70
38784;DHT22;24531;45.502;12.238;2023-07-13T04:23:07;26.10;97.80
38784;DHT22;24531;45.502;12.238;2023-07-13T04:25:33;26.10;97.80
38784;DHT22;24531;45.502;12.238;2023-07-13T04:27:59;26.10;97.90
38784;DHT22;24531;45.502;12.238;2023-07-13T04:30:25;26.10;97.80
38784;DHT22;24531;45.502;12.238;2023-07-13T04:32:51;26.10;97.80
38784;DHT22;24531;45.502;12.238;2023-07-13T04:35:19;26.10;97.80
38784;DHT22;24531;45.502;12.238;2023-07-13T04:37:47;26.00;97.90
38784;DHT22;24531;45.502;12.238;2023-07-13T04:40:13;26.10;97.90
38784;DHT22;24531;45.502;12.238;2023-07-13T04:42:39;26.10;98.00
38784;DHT22;24531;45.502;12.238;2023-07-13T04:45:06;26.10;98.00
38784;DHT22;24531;45.502;12.238;2023-07-13T04:47:32;26.10;98.00
38784;DHT22;24531;45.502;12.238;2023-07-13T04:49:58;26.20;98.00
38784;DHT22;24531;45.502;12.238;2023-07-13T04:52:24;26.20;98.00
38784;DHT22;24531;45.502;12.238;2023-07-13T04:54:50;26.20;97.90
38784;DHT22;24531;45.502;12.238;2023-07-13T04:57:15;26.20;97.80
38784;DHT22;24531;45.502;12.238;2023-07-13T04:59:44;26.30;97.80
38784;DHT22;24531;45.502;12.238;2023-07-13T05:02:10;26.30;97.70
38784;DHT22;24531;45.502;12.238;2023-07-13T05:04:35;26.30;97.60
38784;DHT22;24531;45.502;12.238;2023-07-13T05:07:01;26.20;97.60
38784;DHT22;24531;45.502;12.238;2023-07-13T05:09:27;26.20;97.90
38784;DHT22;24531;45.502;12.238;2023-07-13T05:11:52;26.30;97.60
38784;DHT22;24531;45.502;12.238;2023-07-13T05:14:18;26.30;97.50
38784;DHT22;24531;45.502;12.238;2023-07-13T05:16:43;26.30;97.50
38784;DHT22;24531;45.502;12.238;2023-07-13T05:19:09;26.40;97.50
38784;DHT22;24531;45.502;12.238;2023-07-13T05:21:35;26.40;97.40
38784;DHT22;24531;45.502;12.238;2023-07-13T05:24:01;26.40;97.30
38784;DHT22;24531;45.502;12.238;2023-07-13T05:26:26;26.40;97.40
38784;DHT22;24531;45.502;12.238;2023-07-13T05:28:52;26.50;97.30
38784;DHT22;24531;45.502;12.238;2023-07-13T05:31:18;26.50;97.30
38784;DHT22;24531;45.502;12.238;2023-07-13T05:33:43;26.50;97.30
38784;DHT22;24531;45.502;12.238;2023-07-13T05:36:09;26.60;97.30
38784;DHT22;24531;45.502;12.238;2023-07-13T05:38:34;26.60;97.20
38784;DHT22;24531;45.502;12.238;2023-07-13T05:41:00;26.60;97.20
38784;DHT22;24531;45.502;12.238;2023-07-13T05:43:26;26.70;97.30
38784;DHT22;24531;45.502;12.238;2023-07-13T05:45:53;26.70;97.20
38784;DHT22;24531;45.502;12.238;2023-07-13T05:48:19;26.80;97.20
38784;DHT22;24531;45.502;12.238;2023-07-13T05:50:45;26.80;97.10
38784;DHT22;24531;45.502;12.238;2023-07-13T05:53:12;26.90;97.10
38784;DHT22;24531;45.502;12.238;2023-07-13T05:55:45;26.90;97.10
38784;DHT22;24531;45.502;12.238;2023-07-13T05:58:18;26.90;97.40
38784;DHT22;24531;45.502;12.238;2023-07-13T06:00:44;27.00;97.00
38784;DHT22;24531;45.502;12.238;2023-07-13T06:03:10;27.00;96.90
38784;DHT22;24531;45.502;12.238;2023-07-13T06:05:36;27.00;96.80
38784;DHT22;24531;45.502;12.238;2023-07-13T06:08:04;27.00;96.90
38784;DHT22;24531;45.502;12.238;2023-07-13T06:10:32;27.00;96.90
38784;DHT22;24531;45.502;12.238;2023-07-13T06:12:58;27.10;96.90
38784;DHT22;24531;45.502;12.238;2023-07-13T06:15:24;27.20;96.80
38784;DHT22;24531;45.502;12.238;2023-07-13T06:17:49;27.30;96.70
38784;DHT22;24531;45.502;12.238;2023-07-13T06:20:15;27.40;96.60
38784;DHT22;24531;45.502;12.238;2023-07-13T06:22:41;27.40;96.50
38784;DHT22;24531;45.502;12.238;2023-07-13T06:25:07;27.40;96.40
38784;DHT22;24531;45.502;12.238;2023-07-13T06:27:33;27.50;96.40
38784;DHT22;24531;45.502;12.238;2023-07-13T06:29:58;27.60;96.40
38784;DHT22;24531;45.502;12.238;2023-07-13T06:32:24;27.70;96.40
38784;DHT22;24531;45.502;12.238;2023-07-13T06:34:49;27.80;96.20
38784;DHT22;24531;45.502;12.238;2023-07-13T06:37:17;27.90;96.10
38784;DHT22;24531;45.502;12.238;2023-07-13T06:39:43;28.00;95.90
38784;DHT22;24531;45.502;12.238;2023-07-13T06:42:09;28.00;95.70
38784;DHT22;24531;45.502;12.238;2023-07-13T06:44:34;28.10;95.80
38784;DHT22;24531;45.502;12.238;2023-07-13T06:47:00;28.20;95.80
38784;DHT22;24531;45.502;12.238;2023-07-13T06:49:26;28.50;95.80
38784;DHT22;24531;45.502;12.238;2023-07-13T06:51:51;28.80;95.40
38784;DHT22;24531;45.502;12.238;2023-07-13T06:54:17;29.10;95.20
38784;DHT22;24531;45.502;12.238;2023-07-13T06:56:42;29.20;94.90
38784;DHT22;24531;45.502;12.238;2023-07-13T06:59:08;29.20;94.80
38784;DHT22;24531;45.502;12.238;2023-07-13T07:01:34;29.20;94.70
38784;DHT22;24531;45.502;12.238;2023-07-13T07:03:59;29.20;94.60
38784;DHT22;24531;45.502;12.238;2023-07-13T07:06:25;29.10;94.50
38784;DHT22;24531;45.502;12.238;2023-07-13T07:08:52;29.00;94.50
38784;DHT22;24531;45.502;12.238;2023-07-13T07:11:20;29.00;94.70
38784;DHT22;24531;45.502;12.238;2023-07-13T07:13:47;28.90;94.70
38784;DHT22;24531;45.502;12.238;2023-07-13T07:16:13;28.90;94.70
38784;DHT22;24531;45.502;12.238;2023-07-13T07:18:39;28.90;94.70
38784;DHT22;24531;45.502;12.238;2023-07-13T07:21:05;28.80;94.70
38784;DHT22;24531;45.502;12.238;2023-07-13T07:23:31;28.80;94.70
38784;DHT22;24531;45.502;12.238;2023-07-13T07:25:56;28.80;94.70
38784;DHT22;24531;45.502;12.238;2023-07-13T07:28:22;28.80;94.60
38784;DHT22;24531;45.502;12.238;2023-07-13T07:30:49;28.80;94.60
38784;DHT22;24531;45.502;12.238;2023-07-13T07:33:17;28.70;94.60
38784;DHT22;24531;45.502;12.238;2023-07-13T07:35:43;28.70;94.60
38784;DHT22;24531;45.502;12.238;2023-07-13T07:38:09;28.60;94.60
38784;DHT22;24531;45.502;12.238;2023-07-13T07:40:38;28.60;94.70
38784;DHT22;24531;45.502;12.238;2023-07-13T07:43:06;28.70;94.70
38784;DHT22;24531;45.502;12.238;2023-07-13T07:45:31;28.70;94.60
38784;DHT22;24531;45.502;12.238;2023-07-13T07:47:57;28.80;94.50
38784;DHT22;24531;45.502;12.238;2023-07-13T07:50:25;28.70;94.60
38784;DHT22;24531;45.502;12.238;2023-07-13T07:52:51;28.80;94.50
38784;DHT22;24531;45.502;12.238;2023-07-13T07:55:17;28.80;94.50
38784;DHT22;24531;45.502;12.238;2023-07-13T07:57:42;28.80;94.40
38784;DHT22;24531;45.502;12.238;2023-07-13T08:00:09;28.90;94.40
38784;DHT22;24531;45.502;12.238;2023-07-13T08:02:34;29.00;94.30
38784;DHT22;24531;45.502;12.238;2023-07-13T08:05:00;28.90;94.20
38784;DHT22;24531;45.502;12.238;2023-07-13T08:07:25;28.90;94.30
38784;DHT22;24531;45.502;12.238;2023-07-13T08:09:54;29.00;94.40
38784;DHT22;24531;45.502;12.238;2023-07-13T08:12:20;29.10;94.30
38784;DHT22;24531;45.502;12.238;2023-07-13T08:14:49;29.00;93.90
38784;DHT22;24531;45.502;12.238;2023-07-13T08:17:19;29.00;93.90
38784;DHT22;24531;45.502;12.238;2023-07-13T08:19:53;29.00;94.00
38784;DHT22;24531;45.502;12.238;2023-07-13T08:22:19;29.00;94.00
38784;DHT22;24531;45.502;12.238;2023-07-13T08:24:45;29.00;93.80
38784;DHT22;24531;45.502;12.238;2023-07-13T08:27:11;28.90;93.80
38784;DHT22;24531;45.502;12.238;2023-07-13T08:29:37;28.80;93.80
38784;DHT22;24531;45.502;12.238;2023-07-13T08:32:04;28.80;93.90
38784;DHT22;24531;45.502;12.238;2023-07-13T08:34:30;28.90;94.00
38784;DHT22;24531;45.502;12.238;2023-07-13T08:36:55;28.90;94.00
38784;DHT22;24531;45.502;12.238;2023-07-13T08:39:21;29.00;93.90
38784;DHT22;24531;45.502;12.238;2023-07-13T08:41:51;29.00;93.70
38784;DHT22;24531;45.502;12.238;2023-07-13T08:44:31;29.00;93.40
38784;DHT22;24531;45.502;12.238;2023-07-13T08:47:02;29.00;93.50
38784;DHT22;24531;45.502;12.238;2023-07-13T08:49:28;28.90;93.50
38784;DHT22;24531;45.502;12.238;2023-07-13T08:52:02;28.90;93.50
38784;DHT22;24531;45.502;12.238;2023-07-13T08:54:34;28.90;93.30
38784;DHT22;24531;45.502;12.238;2023-07-13T08:57:05;28.90;93.40
38784;DHT22;24531;45.502;12.238;2023-07-13T08:59:35;29.00;93.50
38784;DHT22;24531;45.502;12.238;2023-07-13T09:04:56;29.00;93.40
38784;DHT22;24531;45.502;12.238;2023-07-13T09:07:26;29.00;93.20
38784;DHT22;24531;45.502;12.238;2023-07-13T09:10:10;29.00;93.10
38784;DHT22;24531;45.502;12.238;2023-07-13T09:15:24;29.10;93.00
38784;DHT22;24531;45.502;12.238;2023-07-13T09:17:53;29.00;93.00
38784;DHT22;24531;45.502;12.238;2023-07-13T09:20:29;29.00;93.00
38784;DHT22;24531;45.502;12.238;2023-07-13T09:22:56;28.90;93.00
38784;DHT22;24531;45.502;12.238;2023-07-13T09:25:35;28.90;93.00
38784;DHT22;24531;45.502;12.238;2023-07-13T09:28:15;28.80;92.80
38784;DHT22;24531;45.502;12.238;2023-07-13T09:30:52;28.60;92.90
38784;DHT22;24531;45.502;12.238;2023-07-13T09:33:20;28.60;92.90
38784;DHT22;24531;45.502;12.238;2023-07-13T09:35:46;28.60;93.10
38784;DHT22;24531;45.502;12.238;2023-07-13T09:38:14;28.60;93.20
38784;DHT22;24531;45.502;12.238;2023-07-13T09:43:08;28.60;93.30
38784;DHT22;24531;45.502;12.238;2023-07-13T09:45:36;28.60;93.30
38784;DHT22;24531;45.502;12.238;2023-07-13T09:48:10;28.60;93.10
38784;DHT22;24531;45.502;12.238;2023-07-13T09:50:36;28.60;92.90
38784;DHT22;24531;45.502;12.238;2023-07-13T09:53:02;28.50;93.10
38784;DHT22;24531;45.502;12.238;2023-07-13T09:55:37;28.40;93.00
38784;DHT22;24531;45.502;12.238;2023-07-13T09:58:15;28.40;93.00
38784;DHT22;24531;45.502;12.238;2023-07-13T10:00:43;28.30;93.30
38784;DHT22;24531;45.502;12.238;2023-07-13T10:03:20;28.20;93.80
38784;DHT22;24531;45.502;12.238;2023-07-13T10:05:48;28.20;93.60
38784;DHT22;24531;45.502;12.238;2023-07-13T10:08:35;28.20;93.80
38784;DHT22;24531;45.502;12.238;2023-07-13T10:11:20;28.20;94.00
38784;DHT22;24531;45.502;12.238;2023-07-13T10:13:57;28.20;94.00
38784;DHT22;24531;45.502;12.238;2023-07-13T10:16:25;28.30;94.00
38784;DHT22;24531;45.502;12.238;2023-07-13T10:18:58;28.30;94.00
38784;DHT22;24531;45.502;12.238;2023-07-13T10:21:34;28.30;94.00
38784;DHT22;24531;45.502;12.238;2023-07-13T10:26:34;28.30;94.30
38784;DHT22;24531;45.502;12.238;2023-07-13T10:29:06;28.30;94.30
38784;DHT22;24531;45.502;12.238;2023-07-13T10:31:36;28.30;94.50
38784;DHT22;24531;45.502;12.238;2023-07-13T10:34:03;28.40;94.60
38784;DHT22;24531;45.502;12.238;2023-07-13T10:36:40;28.40;94.50
38784;DHT22;24531;45.502;12.238;2023-07-13T10:39:14;28.50;94.40
38784;DHT22;24531;45.502;12.238;2023-07-13T10:41:42;28.60;94.30
38784;DHT22;24531;45.502;12.238;2023-07-13T10:44:29;28.70;94.20
38784;DHT22;24531;45.502;12.238;2023-07-13T10:47:08;28.70;94.20
38784;DHT22;24531;45.502;12.238;2023-07-13T10:49:37;28.80;94.30
38784;DHT22;24531;45.502;12.238;2023-07-13T10:52:03;29.00;94.30
38784;DHT22;24531;45.502;12.238;2023-07-13T10:54:35;29.20;94.20
38784;DHT22;24531;45.502;12.238;2023-07-13T10:57:19;29.40;94.20
38784;DHT22;24531;45.502;12.238;2023-07-13T11:00:14;29.60;93.90
38784;DHT22;24531;45.502;12.238;2023-07-13T11:02:40;29.90;93.90
38784;DHT22;24531;45.502;12.238;2023-07-13T11:05:30;30.20;93.80
38784;DHT22;24531;45.502;12.238;2023-07-13T11:08:16;30.60;93.40
38784;DHT22;24531;45.502;12.238;2023-07-13T11:13:38;31.20;92.30
38784;DHT22;24531;45.502;12.238;2023-07-13T11:16:36;31.60;92.10
38784;DHT22;24531;45.502;12.238;2023-07-13T11:21:29;32.00;91.40
38784;DHT22;24531;45.502;12.238;2023-07-13T11:24:17;32.10;90.80
38784;DHT22;24531;45.502;12.238;2023-07-13T11:26:51;32.30;90.80
38784;DHT22;24531;45.502;12.238;2023-07-13T11:31:53;32.70;90.10
38784;DHT22;24531;45.502;12.238;2023-07-13T11:34:27;32.90;89.70
38784;DHT22;24531;45.502;12.238;2023-07-13T11:36:53;33.10;89.40
38784;DHT22;24531;45.502;12.238;2023-07-13T11:39:36;33.30;88.80
38784;DHT22;24531;45.502;12.238;2023-07-13T11:42:06;33.40;89.20
38784;DHT22;24531;45.502;12.238;2023-07-13T11:44:34;33.50;88.30
38784;DHT22;24531;45.502;12.238;2023-07-13T11:47:08;33.70;87.20
38784;DHT22;24531;45.502;12.238;2023-07-13T11:49:43;33.80;86.40
38784;DHT22;24531;45.502;12.238;2023-07-13T12:29:33;34.70;81.40
38784;DHT22;24531;45.502;12.238;2023-07-13T13:07:40;37.50;81.30
38784;DHT22;24531;45.502;12.238;2023-07-13T13:10:13;35.00;79.10
38784;DHT22;24531;45.502;12.238;2023-07-13T13:12:40;35.10;78.70
38784;DHT22;24531;45.502;12.238;2023-07-13T13:15:08;35.20;78.60
38784;DHT22;24531;45.502;12.238;2023-07-13T13:17:34;35.20;78.60
38784;DHT22;24531;45.502;12.238;2023-07-13T13:20:00;35.40;78.20
38784;DHT22;24531;45.502;12.238;2023-07-13T13:22:26;35.40;77.10
38784;DHT22;24531;45.502;12.238;2023-07-13T13:24:52;35.40;77.10
38784;DHT22;24531;45.502;12.238;2023-07-13T13:27:22;35.40;77.20
38784;DHT22;24531;45.502;12.238;2023-07-13T13:29:50;35.20;76.70
38784;DHT22;24531;45.502;12.238;2023-07-13T13:32:17;35.00;76.80
38784;DHT22;24531;45.502;12.238;2023-07-13T13:34:44;34.80;76.80
38784;DHT22;24531;45.502;12.238;2023-07-13T13:37:19;34.40;76.60
38784;DHT22;24531;45.502;12.238;2023-07-13T13:39:46;34.20;77.00
38784;DHT22;24531;45.502;12.238;2023-07-13T13:42:12;34.10;77.30
38784;DHT22;24531;45.502;12.238;2023-07-13T13:44:38;34.10;77.20
38784;DHT22;24531;45.502;12.238;2023-07-13T13:47:04;34.30;77.10
38784;DHT22;24531;45.502;12.238;2023-07-13T13:49:30;34.40;76.90
38784;DHT22;24531;45.502;12.238;2023-07-13T13:51:56;34.40;76.70
38784;DHT22;24531;45.502;12.238;2023-07-13T13:54:23;34.50;76.70
38784;DHT22;24531;45.502;12.238;2023-07-13T13:56:51;34.50;76.60
38784;DHT22;24531;45.502;12.238;2023-07-13T13:59:17;34.50;76.30
38784;DHT22;24531;45.502;12.238;2023-07-13T14:01:45;34.50;76.80
38784;DHT22;24531;45.502;12.238;2023-07-13T14:04:16;34.60;76.00
38784;DHT22;24531;45.502;12.238;2023-07-13T14:06:43;34.60;75.90
38784;DHT22;24531;45.502;12.238;2023-07-13T14:09:11;34.60;76.20
38784;DHT22;24531;45.502;12.238;2023-07-13T14:11:38;34.70;76.10
38784;DHT22;24531;45.502;12.238;2023-07-13T14:14:12;34.70;75.80
38784;DHT22;24531;45.502;12.238;2023-07-13T14:16:39;34.70;75.70
38784;DHT22;24531;45.502;12.238;2023-07-13T14:19:10;34.70;75.30
38784;DHT22;24531;45.502;12.238;2023-07-13T14:21:55;34.40;75.30
38784;DHT22;24531;45.502;12.238;2023-07-13T14:27:41;34.00;76.30
38784;DHT22;24531;45.502;12.238;2023-07-13T14:30:29;33.60;77.10
38784;DHT22;24531;45.502;12.238;2023-07-13T14:33:17;36.20;79.50
38784;DHT22;24531;45.502;12.238;2023-07-13T14:58:35;33.10;80.60
38784;DHT22;24531;45.502;12.238;2023-07-13T15:27:42;33.80;85.00
38784;DHT22;24531;45.502;12.238;2023-07-13T15:33:30;32.10;84.40
38784;DHT22;24531;45.502;12.238;2023-07-13T15:36:57;32.30;89.00
38784;DHT22;24531;45.502;12.238;2023-07-13T15:39:41;32.60;85.00
38784;DHT22;24531;45.502;12.238;2023-07-13T15:45:48;32.60;85.30
38784;DHT22;24531;45.502;12.238;2023-07-13T15:48:20;32.20;87.00
38784;DHT22;24531;45.502;12.238;2023-07-13T15:50:48;32.20;84.70
38784;DHT22;24531;45.502;12.238;2023-07-13T15:53:22;32.20;84.50
38784;DHT22;24531;45.502;12.238;2023-07-13T15:55:48;32.20;84.80
38784;DHT22;24531;45.502;12.238;2023-07-13T15:58:15;32.20;84.80
38784;DHT22;24531;45.502;12.238;2023-07-13T16:00:42;32.20;84.70
38784;DHT22;24531;45.502;12.238;2023-07-13T16:05:43;32.10;84.60
38784;DHT22;24531;45.502;12.238;2023-07-13T16:08:25;32.10;85.30
38784;DHT22;24531;45.502;12.238;2023-07-13T16:11:07;33.50;85.80
38784;DHT22;24531;45.502;12.238;2023-07-13T16:13:38;31.90;84.60
38784;DHT22;24531;45.502;12.238;2023-07-13T16:16:09;31.80;84.80
38784;DHT22;24531;45.502;12.238;2023-07-13T16:18:35;31.80;85.40
38784;DHT22;24531;45.502;12.238;2023-07-13T16:21:00;31.70;85.60
38784;DHT22;24531;45.502;12.238;2023-07-13T16:23:35;31.70;85.80
38784;DHT22;24531;45.502;12.238;2023-07-13T16:26:03;31.70;85.80
38784;DHT22;24531;45.502;12.238;2023-07-13T16:34:55;33.70;87.00
38784;DHT22;24531;45.502;12.238;2023-07-13T16:38:13;32.70;86.00
38784;DHT22;24531;45.502;12.238;2023-07-13T16:41:01;33.20;86.40
38784;DHT22;24531;45.502;12.238;2023-07-13T16:47:14;33.60;86.20
38784;DHT22;24531;45.502;12.238;2023-07-13T16:50:34;33.40;85.90
38784;DHT22;24531;45.502;12.238;2023-07-13T16:53:19;33.00;85.80
38784;DHT22;24531;45.502;12.238;2023-07-13T16:56:23;31.60;85.50
38784;DHT22;24531;45.502;12.238;2023-07-13T16:59:01;32.80;86.60
38784;DHT22;24531;45.502;12.238;2023-07-13T17:01:37;31.70;86.20
38784;DHT22;24531;45.502;12.238;2023-07-13T17:04:25;31.70;85.60
38784;DHT22;24531;45.502;12.238;2023-07-13T17:07:10;33.40;86.90
38784;DHT22;24531;45.502;12.238;2023-07-13T17:09:35;31.70;85.50
38784;DHT22;24531;45.502;12.238;2023-07-13T17:12:01;31.70;85.40
38784;DHT22;24531;45.502;12.238;2023-07-13T17:14:27;31.60;85.50
38784;DHT22;24531;45.502;12.238;2023-07-13T17:16:56;31.60;85.50
38784;DHT22;24531;45.502;12.238;2023-07-13T17:19:28;31.50;85.40
38784;DHT22;24531;45.502;12.238;2023-07-13T17:21:54;31.40;85.60
38784;DHT22;24531;45.502;12.238;2023-07-13T17:24:24;31.40;85.80
38784;DHT22;24531;45.502;12.238;2023-07-13T17:26:50;31.30;85.80
38784;DHT22;24531;45.502;12.238;2023-07-13T17:29:18;31.30;85.70
38784;DHT22;24531;45.502;12.238;2023-07-13T17:31:44;31.10;86.10
38784;DHT22;24531;45.502;12.238;2023-07-13T17:34:15;31.10;86.20
38784;DHT22;24531;45.502;12.238;2023-07-13T17:36:48;31.10;86.20
38784;DHT22;24531;45.502;12.238;2023-07-13T17:39:19;30.90;86.30
38784;DHT22;24531;45.502;12.238;2023-07-13T17:41:45;31.00;86.70
38784;DHT22;24531;45.502;12.238;2023-07-13T17:44:13;31.00;86.60
38784;DHT22;24531;45.502;12.238;2023-07-13T17:46:39;31.00;86.60
38784;DHT22;24531;45.502;12.238;2023-07-13T17:49:19;30.90;86.40
38784;DHT22;24531;45.502;12.238;2023-07-13T17:51:48;30.90;86.50
38784;DHT22;24531;45.502;12.238;2023-07-13T17:54:16;30.90;86.30
38784;DHT22;24531;45.502;12.238;2023-07-13T17:56:43;30.90;86.30
38784;DHT22;24531;45.502;12.238;2023-07-13T17:59:08;30.70;86.50
38784;DHT22;24531;45.502;12.238;2023-07-13T18:01:35;30.70;86.90
38784;DHT22;24531;45.502;12.238;2023-07-13T18:04:05;30.60;87.10
38784;DHT22;24531;45.502;12.238;2023-07-13T18:06:34;30.60;87.10
38784;DHT22;24531;45.502;12.238;2023-07-13T18:09:02;30.50;87.30
38784;DHT22;24531;45.502;12.238;2023-07-13T18:11:29;30.50;87.50
38784;DHT22;24531;45.502;12.238;2023-07-13T18:13:56;30.50;87.60
38784;DHT22;24531;45.502;12.238;2023-07-13T18:16:29;30.50;87.90
38784;DHT22;24531;45.502;12.238;2023-07-13T18:18:57;30.50;88.10
38784;DHT22;24531;45.502;12.238;2023-07-13T18:21:24;30.50;88.00
38784;DHT22;24531;45.502;12.238;2023-07-13T18:23:52;30.40;88.20
38784;DHT22;24531;45.502;12.238;2023-07-13T18:26:18;30.40;88.00
38784;DHT22;24531;45.502;12.238;2023-07-13T18:28:45;30.40;88.20
38784;DHT22;24531;45.502;12.238;2023-07-13T18:31:16;30.30;88.10
38784;DHT22;24531;45.502;12.238;2023-07-13T18:33:44;30.30;88.10
38784;DHT22;24531;45.502;12.238;2023-07-13T18:36:13;30.30;88.20
38784;DHT22;24531;45.502;12.238;2023-07-13T18:38:40;30.30;88.40
38784;DHT22;24531;45.502;12.238;2023-07-13T18:41:13;30.30;88.70
38784;DHT22;24531;45.502;12.238;2023-07-13T18:43:39;30.30;88.70
38784;DHT22;24531;45.502;12.238;2023-07-13T18:46:23;30.20;89.30
38784;DHT22;24531;45.502;12.238;2023-07-13T18:48:49;30.10;88.90
38784;DHT22;24531;45.502;12.238;2023-07-13T18:51:16;30.10;89.00
38784;DHT22;24531;45.502;12.238;2023-07-13T18:53:42;30.00;89.10
38784;DHT22;24531;45.502;12.238;2023-07-13T18:56:08;30.00;89.10
38784;DHT22;24531;45.502;12.238;2023-07-13T18:58:36;29.90;89.50
38784;DHT22;24531;45.502;12.238;2023-07-13T19:01:02;29.80;89.50
38784;DHT22;24531;45.502;12.238;2023-07-13T19:03:32;29.80;89.90
38784;DHT22;24531;45.502;12.238;2023-07-13T19:06:00;29.70;89.90
38784;DHT22;24531;45.502;12.238;2023-07-13T19:08:26;29.80;89.90
38784;DHT22;24531;45.502;12.238;2023-07-13T19:10:53;29.80;89.70
38784;DHT22;24531;45.502;12.238;2023-07-13T19:13:27;29.70;89.40
38784;DHT22;24531;45.502;12.238;2023-07-13T19:15:54;29.70;89.50
38784;DHT22;24531;45.502;12.238;2023-07-13T19:18:21;29.70;89.50
38784;DHT22;24531;45.502;12.238;2023-07-13T19:20:50;29.70;89.60
38784;DHT22;24531;45.502;12.238;2023-07-13T19:25:46;29.50;90.00
38784;DHT22;24531;45.502;12.238;2023-07-13T19:28:28;29.40;90.10
38784;DHT22;24531;45.502;12.238;2023-07-13T19:30:56;29.40;90.30
38784;DHT22;24531;45.502;12.238;2023-07-13T19:33:22;29.30;90.40
38784;DHT22;24531;45.502;12.238;2023-07-13T19:35:48;29.20;90.60
38784;DHT22;24531;45.502;12.238;2023-07-13T19:38:15;29.20;90.70
38784;DHT22;24531;45.502;12.238;2023-07-13T19:40:41;29.10;90.80
38784;DHT22;24531;45.502;12.238;2023-07-13T19:43:14;29.00;91.00
38784;DHT22;24531;45.502;12.238;2023-07-13T19:45:40;28.90;91.10
38784;DHT22;24531;45.502;12.238;2023-07-13T19:48:05;28.90;91.20
38784;DHT22;24531;45.502;12.238;2023-07-13T19:50:33;28.80;91.30
38784;DHT22;24531;45.502;12.238;2023-07-13T19:53:00;28.80;91.50
38784;DHT22;24531;45.502;12.238;2023-07-13T19:55:26;28.80;91.60
38784;DHT22;24531;45.502;12.238;2023-07-13T19:57:53;28.80;91.70
38784;DHT22;24531;45.502;12.238;2023-07-13T20:00:21;28.70;91.70
38784;DHT22;24531;45.502;12.238;2023-07-13T20:02:48;28.70;91.80
38784;DHT22;24531;45.502;12.238;2023-07-13T20:05:16;28.70;91.90
38784;DHT22;24531;45.502;12.238;2023-07-13T20:07:43;28.60;92.00
38784;DHT22;24531;45.502;12.238;2023-07-13T20:10:29;28.60;92.10
38784;DHT22;24531;45.502;12.238;2023-07-13T20:12:57;28.60;92.30
38784;DHT22;24531;45.502;12.238;2023-07-13T20:30:51;28.60;92.70
38784;DHT22;24531;45.502;12.238;2023-07-13T20:33:23;28.40;92.70
38784;DHT22;24531;45.502;12.238;2023-07-13T20:35:54;28.30;92.80
38784;DHT22;24531;45.502;12.238;2023-07-13T20:38:22;28.30;92.90
38784;DHT22;24531;45.502;12.238;2023-07-13T20:40:48;28.30;93.00
38784;DHT22;24531;45.502;12.238;2023-07-13T20:43:18;28.30;93.10
38784;DHT22;24531;45.502;12.238;2023-07-13T20:45:45;28.20;93.10
38784;DHT22;24531;45.502;12.238;2023-07-13T20:48:29;28.20;93.20
38784;DHT22;24531;45.502;12.238;2023-07-13T20:50:59;28.20;93.30
38784;DHT22;24531;45.502;12.238;2023-07-13T20:53:26;28.20;93.30
38784;DHT22;24531;45.502;12.238;2023-07-13T20:55:52;28.20;93.40
38784;DHT22;24531;45.502;12.238;2023-07-13T20:58:18;28.20;93.60
38784;DHT22;24531;45.502;12.238;2023-07-13T21:00:44;28.20;93.60
38784;DHT22;24531;45.502;12.238;2023-07-13T21:03:25;28.20;94.10
38784;DHT22;24531;45.502;12.238;2023-07-13T21:05:54;28.10;93.80
38784;DHT22;24531;45.502;12.238;2023-07-13T21:08:22;28.00;93.80
38784;DHT22;24531;45.502;12.238;2023-07-13T21:10:48;28.00;93.90
38784;DHT22;24531;45.502;12.238;2023-07-13T21:13:16;28.00;94.00
38784;DHT22;24531;45.502;12.238;2023-07-13T21:15:44;28.00;94.10
38784;DHT22;24531;45.502;12.238;2023-07-13T21:18:21;28.00;94.20
38784;DHT22;24531;45.502;12.238;2023-07-13T21:20:53;28.00;94.30
38784;DHT22;24531;45.502;12.238;2023-07-13T21:23:27;28.00;94.30
38784;DHT22;24531;45.502;12.238;2023-07-13T21:25:53;28.00;94.30
38784;DHT22;24531;45.502;12.238;2023-07-13T21:28:22;28.00;94.30
38784;DHT22;24531;45.502;12.238;2023-07-13T21:30:49;28.00;94.40
38784;DHT22;24531;45.502;12.238;2023-07-13T21:33:15;27.90;94.40
38784;DHT22;24531;45.502;12.238;2023-07-13T21:35:42;27.90;94.50
38784;DHT22;24531;45.502;12.238;2023-07-13T21:40:44;27.90;94.70
38784;DHT22;24531;45.502;12.238;2023-07-13T21:43:14;27.90;94.80
38784;DHT22;24531;45.502;12.238;2023-07-13T21:45:40;27.80;94.80
38784;DHT22;24531;45.502;12.238;2023-07-13T21:48:07;27.80;94.90
38784;DHT22;24531;45.502;12.238;2023-07-13T21:50:36;27.80;95.00